sensor_id;sensor_type;location;lat;lon;timestamp;temperature;humidity
2100;DHT22;1055;48.854;9.302;2024-01-10T00:00:22;-2.10;95.70
2100;DHT22;1055;48.854;9.302;2024-01-10T00:02:48;-2.20;95.80
2100;DHT22;1055;48.854;9.302;2024-01-10T00:05:13;-2.20;95.50
2100;DHT22;1055;48.854;9.302;2024-01-10T00:07:39;-2.10;95.80
2100;DHT22;1055;48.854;9.302;2024-01-10T00:10:04;-1.90;95.10
2100;DHT22;1055;48.854;9.302;2024-01-10T00:12:30;-1.90;94.80
2100;DHT22;1055;48.854;9.302;2024-01-10T00:15:00;-1.80;95.00
2100;DHT22;1055;48.854;9.302;2024-01-10T00:17:26;-1.80;94.70
2100;DHT22;1055;48.854;9.302;2024-01-10T00:19:51;-1.70;94.60
2100;DHT22;1055;48.854;9.302;2024-01-10T00:22:17;-1.70;94.70
2100;DHT22;1055;48.854;9.302;2024-01-10T00:24:42;-2.00;95.10
2100;DHT22;1055;48.854;9.302;2024-01-10T00:27:08;-2.00;95.40
2100;DHT22;1055;48.854;9.302;2024-01-10T00:29:35;-1.90;95.60
2100;DHT22;1055;48.854;9.302;2024-01-10T00:32:00;-1.80;95.80
2100;DHT22;1055;48.854;9.302;2024-01-10T00:34:26;-1.90;95.80
2100;DHT22;1055;48.854;9.302;2024-01-10T00:36:52;-2.00;96.50
2100;DHT22;1055;48.854;9.302;2024-01-10T00:39:17;-1.90;96.90
2100;DHT22;1055;48.854;9.302;2024-01-10T00:41:43;-1.80;97.20
2100;DHT22;1055;48.854;9.302;2024-01-10T00:44:08;-1.70;96.80
2100;DHT22;1055;48.854;9.302;2024-01-10T00:46:34;-1.70;97.10
2100;DHT22;1055;48.854;9.302;2024-01-10T00:48:59;-1.70;97.00
2100;DHT22;1055;48.854;9.302;2024-01-10T00:51:25;-1.60;96.70
2100;DHT22;1055;48.854;9.302;2024-01-10T00:53:51;-1.80;97.20
2100;DHT22;1055;48.854;9.302;2024-01-10T00:56:16;-1.90;97.40
2100;DHT22;1055;48.854;9.302;2024-01-10T00:58:42;-1.90;98.00
2100;DHT22;1055;48.854;9.302;2024-01-10T01:01:07;-1.90;98.10
2100;DHT22;1055;48.854;9.302;2024-01-10T01:03:33;-1.90;98.70
2100;DHT22;1055;48.854;9.302;2024-01-10T01:05:59;-1.90;98.70
2100;DHT22;1055;48.854;9.302;2024-01-10T01:08:24;-2.50;99.20
2100;DHT22;1055;48.854;9.302;2024-01-10T01:10:50;-2.70;99.90
2100;DHT22;1055;48.854;9.302;2024-01-10T01:13:15;-2.30;99.90
2100;DHT22;1055;48.854;9.302;2024-01-10T01:15:41;-2.10;99.90
2100;DHT22;1055;48.854;9.302;2024-01-10T01:18:07;-1.90;99.70
2100;DHT22;1055;48.854;9.302;2024-01-10T01:20:35;-1.70;99.20
2100;DHT22;1055;48.854;9.302;2024-01-10T01:23:00;-1.60;98.60
2100;DHT22;1055;48.854;9.302;2024-01-10T01:25:26;-1.60;98.00
2100;DHT22;1055;48.854;9.302;2024-01-10T01:27:51;-1.70;98.10
2100;DHT22;1055;48.854;9.302;2024-01-10T01:30:17;-1.60;98.40
2100;DHT22;1055;48.854;9.302;2024-01-10T01:32:42;-1.40;98.20
2100;DHT22;1055;48.854;9.302;2024-01-10T01:35:08;-1.40;98.50
2100;DHT22;1055;48.854;9.302;2024-01-10T01:37:33;-1.40;98.20
2100;DHT22;1055;48.854;9.302;2024-01-10T01:39:59;-1.30;98.00
2100;DHT22;1055;48.854;9.302;2024-01-10T01:42:25;-1.30;98.00
2100;DHT22;1055;48.854;9.302;2024-01-10T01:44:50;-1.30;98.30
2100;DHT22;1055;48.854;9.302;2024-01-10T01:47:16;-1.40;97.80
2100;DHT22;1055;48.854;9.302;2024-01-10T01:49:42;-1.30;98.10
2100;DHT22;1055;48.854;9.302;2024-01-10T01:52:08;-1.30;98.40
2100;DHT22;1055;48.854;9.302;2024-01-10T01:54:34;-1.30;98.20
2100;DHT22;1055;48.854;9.302;2024-01-10T01:57:00;-1.30;98.30
2100;DHT22;1055;48.854;9.302;2024-01-10T01:59:26;-1.30;97.70
2100;DHT22;1055;48.854;9.302;2024-01-10T02:01:55;-1.70;97.90
2100;DHT22;1055;48.854;9.302;2024-01-10T02:04:22;-1.70;98.20
2100;DHT22;1055;48.854;9.302;2024-01-10T02:06:48;-1.80;98.40
2100;DHT22;1055;48.854;9.302;2024-01-10T02:09:14;-2.00;98.30
2100;DHT22;1055;48.854;9.302;2024-01-10T02:11:40;-2.40;99.00
2100;DHT22;1055;48.854;9.302;2024-01-10T02:14:05;-2.30;99.40
2100;DHT22;1055;48.854;9.302;2024-01-10T02:16:31;-2.30;98.40
2100;DHT22;1055;48.854;9.302;2024-01-10T02:18:57;-2.40;98.50
2100;DHT22;1055;48.854;9.302;2024-01-10T02:21:22;-2.30;99.40
2100;DHT22;1055;48.854;9.302;2024-01-10T02:23:48;-2.20;98.90
2100;DHT22;1055;48.854;9.302;2024-01-10T02:26:15;-2.00;98.40
2100;DHT22;1055;48.854;9.302;2024-01-10T02:28:40;-1.80;98.30
2100;DHT22;1055;48.854;9.302;2024-01-10T02:31:06;-2.10;98.00
2100;DHT22;1055;48.854;9.302;2024-01-10T02:33:32;-2.20;98.50
2100;DHT22;1055;48.854;9.302;2024-01-10T02:35:58;-2.00;97.90
2100;DHT22;1055;48.854;9.302;2024-01-10T02:38:24;-1.90;97.30
2100;DHT22;1055;48.854;9.302;2024-01-10T02:40:49;-1.70;96.80
2100;DHT22;1055;48.854;9.302;2024-01-10T02:43:15;-2.10;96.30
2100;DHT22;1055;48.854;9.302;2024-01-10T02:45:41;-2.30;97.50
2100;DHT22;1055;48.854;9.302;2024-01-10T02:48:07;-2.00;97.90
2100;DHT22;1055;48.854;9.302;2024-01-10T02:50:32;-1.80;97.70
2100;DHT22;1055;48.854;9.302;2024-01-10T02:52:58;-2.00;97.30
2100;DHT22;1055;48.854;9.302;2024-01-10T02:55:23;-2.20;98.30
2100;DHT22;1055;48.854;9.302;2024-01-10T02:57:49;-2.30;98.90
2100;DHT22;1055;48.854;9.302;2024-01-10T03:00:15;-2.00;98.70
2100;DHT22;1055;48.854;9.302;2024-01-10T03:02:40;-2.20;98.20
2100;DHT22;1055;48.854;9.302;2024-01-10T03:05:06;-2.20;98.20
2100;DHT22;1055;48.854;9.302;2024-01-10T03:07:32;-2.20;98.30
2100;DHT22;1055;48.854;9.302;2024-01-10T03:09:57;-1.80;98.40
2100;DHT22;1055;48.854;9.302;2024-01-10T03:12:23;-1.90;97.90
2100;DHT22;1055;48.854;9.302;2024-01-10T03:14:49;-1.70;98.20
2100;DHT22;1055;48.854;9.302;2024-01-10T03:17:14;-1.50;98.00
2100;DHT22;1055;48.854;9.302;2024-01-10T03:19:40;-1.40;97.80
2100;DHT22;1055;48.854;9.302;2024-01-10T03:22:09;-1.40;97.70
2100;DHT22;1055;48.854;9.302;2024-01-10T03:24:35;-1.30;97.80
2100;DHT22;1055;48.854;9.302;2024-01-10T03:27:01;-1.30;97.80
2100;DHT22;1055;48.854;9.302;2024-01-10T03:29:26;-1.50;98.60
2100;DHT22;1055;48.854;9.302;2024-01-10T03:31:52;-1.70;99.50
2100;DHT22;1055;48.854;9.302;2024-01-10T03:34:17;-1.60;99.90
2100;DHT22;1055;48.854;9.302;2024-01-10T03:36:43;-1.50;99.90
2100;DHT22;1055;48.854;9.302;2024-01-10T03:39:09;-1.40;99.90
2100;DHT22;1055;48.854;9.302;2024-01-10T03:41:35;-1.60;99.90
2100;DHT22;1055;48.854;9.302;2024-01-10T03:44:01;-1.50;99.90
2100;DHT22;1055;48.854;9.302;2024-01-10T03:46:26;-1.50;99.90
2100;DHT22;1055;48.854;9.302;2024-01-10T03:48:52;-1.40;99.90
2100;DHT22;1055;48.854;9.302;2024-01-10T03:51:19;-1.50;99.90
2100;DHT22;1055;48.854;9.302;2024-01-10T03:53:47;-1.40;99.90
2100;DHT22;1055;48.854;9.302;2024-01-10T03:56:15;-1.60;99.90
2100;DHT22;1055;48.854;9.302;2024-01-10T03:58:41;-1.90;99.90
2100;DHT22;1055;48.854;9.302;2024-01-10T04:01:09;-1.90;99.90
2100;DHT22;1055;48.854;9.302;2024-01-10T04:03:35;-1.70;99.90
2100;DHT22;1055;48.854;9.302;2024-01-10T04:06:01;-1.60;99.90
2100;DHT22;1055;48.854;9.302;2024-01-10T04:08:27;-1.50;99.90
2100;DHT22;1055;48.854;9.302;2024-01-10T04:10:52;-1.40;99.90
2100;DHT22;1055;48.854;9.302;2024-01-10T04:13:18;-1.50;99.90
2100;DHT22;1055;48.854;9.302;2024-01-10T04:15:44;-1.40;99.90
2100;DHT22;1055;48.854;9.302;2024-01-10T04:18:09;-1.40;99.90
2100;DHT22;1055;48.854;9.302;2024-01-10T04:20:35;-1.30;99.90
2100;DHT22;1055;48.854;9.302;2024-01-10T04:23:00;-1.30;99.90
2100;DHT22;1055;48.854;9.302;2024-01-10T04:25:26;-1.70;99.90
2100;DHT22;1055;48.854;9.302;2024-01-10T04:27:52;-1.80;99.90
2100;DHT22;1055;48.854;9.302;2024-01-10T04:30:17;-2.10;99.90
2100;DHT22;1055;48.854;9.302;2024-01-10T04:32:43;-2.80;99.90
2100;DHT22;1055;48.854;9.302;2024-01-10T04:35:09;-2.70;99.90
2100;DHT22;1055;48.854;9.302;2024-01-10T04:37:35;-2.40;99.90
2100;DHT22;1055;48.854;9.302;2024-01-10T04:40:00;-1.60;99.90
2100;DHT22;1055;48.854;9.302;2024-01-10T04:42:26;-0.70;99.90
2100;DHT22;1055;48.854;9.302;2024-01-10T04:44:52;-0.80;99.90
2100;DHT22;1055;48.854;9.302;2024-01-10T04:47:18;-0.70;99.90
2100;DHT22;1055;48.854;9.302;2024-01-10T04:49:44;-0.60;99.90
2100;DHT22;1055;48.854;9.302;2024-01-10T04:52:09;-1.00;99.90
2100;DHT22;1055;48.854;9.302;2024-01-10T04:54:35;-1.00;99.90
2100;DHT22;1055;48.854;9.302;2024-01-10T04:57:00;-1.30;99.90
2100;DHT22;1055;48.854;9.302;2024-01-10T04:59:26;-1.10;99.90
2100;DHT22;1055;48.854;9.302;2024-01-10T05:01:52;-1.10;99.90
2100;DHT22;1055;48.854;9.302;2024-01-10T05:04:17;-0.90;99.90
2100;DHT22;1055;48.854;9.302;2024-01-10T05:06:43;-1.00;99.90
2100;DHT22;1055;48.854;9.302;2024-01-10T05:09:08;-1.30;99.90
2100;DHT22;1055;48.854;9.302;2024-01-10T05:11:35;-1.60;99.90
2100;DHT22;1055;48.854;9.302;2024-01-10T05:14:01;-1.60;99.90
2100;DHT22;1055;48.854;9.302;2024-01-10T05:16:28;-1.80;99.90
2100;DHT22;1055;48.854;9.302;2024-01-10T05:18:53;-1.50;99.90
2100;DHT22;1055;48.854;9.302;2024-01-10T05:21:19;-1.40;99.90
2100;DHT22;1055;48.854;9.302;2024-01-10T05:23:45;-1.20;99.90
2100;DHT22;1055;48.854;9.302;2024-01-10T05:26:11;-1.10;99.90
2100;DHT22;1055;48.854;9.302;2024-01-10T05:28:36;-1.00;99.90
2100;DHT22;1055;48.854;9.302;2024-01-10T05:31:02;-0.90;99.90
2100;DHT22;1055;48.854;9.302;2024-01-10T05:33:28;-0.80;99.90
2100;DHT22;1055;48.854;9.302;2024-01-10T05:35:53;-0.90;99.90
2100;DHT22;1055;48.854;9.302;2024-01-10T05:38:19;-0.90;99.90
2100;DHT22;1055;48.854;9.302;2024-01-10T05:40:44;-0.80;99.90
2100;DHT22;1055;48.854;9.302;2024-01-10T05:43:10;-0.80;99.90
2100;DHT22;1055;48.854;9.302;2024-01-10T05:45:36;-0.90;99.90
2100;DHT22;1055;48.854;9.302;2024-01-10T05:48:01;-1.00;99.90
2100;DHT22;1055;48.854;9.302;2024-01-10T05:50:27;-1.20;99.90
2100;DHT22;1055;48.854;9.302;2024-01-10T05:52:53;-1.20;99.90
2100;DHT22;1055;48.854;9.302;2024-01-10T05:55:18;-1.40;99.90
2100;DHT22;1055;48.854;9.302;2024-01-10T05:57:44;-1.40;99.90
2100;DHT22;1055;48.854;9.302;2024-01-10T06:00:10;-1.50;99.90
2100;DHT22;1055;48.854;9.302;2024-01-10T06:02:37;-1.30;99.90
2100;DHT22;1055;48.854;9.302;2024-01-10T06:05:10;-1.30;99.90
2100;DHT22;1055;48.854;9.302;2024-01-10T06:07:39;-1.10;99.90
2100;DHT22;1055;48.854;9.302;2024-01-10T06:10:06;-1.60;99.90
2100;DHT22;1055;48.854;9.302;2024-01-10T06:12:32;-1.30;99.90
2100;DHT22;1055;48.854;9.302;2024-01-10T06:14:57;-1.10;99.90
2100;DHT22;1055;48.854;9.302;2024-01-10T06:17:23;-1.60;99.90
2100;DHT22;1055;48.854;9.302;2024-01-10T06:19:50;-1.50;99.90
2100;DHT22;1055;48.854;9.302;2024-01-10T06:22:16;-1.20;99.90
2100;DHT22;1055;48.854;9.302;2024-01-10T06:24:43;-1.60;99.90
2100;DHT22;1055;48.854;9.302;2024-01-10T06:27:08;-1.90;99.90
2100;DHT22;1055;48.854;9.302;2024-01-10T06:29:35;-1.60;99.90
2100;DHT22;1055;48.854;9.302;2024-01-10T06:32:03;-1.50;99.90
2100;DHT22;1055;48.854;9.302;2024-01-10T06:34:29;-1.40;99.90
2100;DHT22;1055;48.854;9.302;2024-01-10T06:36:55;-1.20;99.90
2100;DHT22;1055;48.854;9.302;2024-01-10T06:39:21;-1.00;99.90
2100;DHT22;1055;48.854;9.302;2024-01-10T06:41:48;-1.10;99.90
2100;DHT22;1055;48.854;9.302;2024-01-10T06:44:14;-0.90;99.90
2100;DHT22;1055;48.854;9.302;2024-01-10T06:46:40;-0.90;99.90
2100;DHT22;1055;48.854;9.302;2024-01-10T06:49:05;-0.80;99.90
2100;DHT22;1055;48.854;9.302;2024-01-10T06:51:32;-0.60;99.90
2100;DHT22;1055;48.854;9.302;2024-01-10T06:53:58;-0.50;99.90
2100;DHT22;1055;48.854;9.302;2024-01-10T06:56:32;-0.40;99.90
2100;DHT22;1055;48.854;9.302;2024-01-10T06:58:58;-0.50;99.90
2100;DHT22;1055;48.854;9.302;2024-01-10T07:01:24;-0.60;99.90
2100;DHT22;1055;48.854;9.302;2024-01-10T07:03:51;-0.80;99.90
2100;DHT22;1055;48.854;9.302;2024-01-10T07:06:17;-1.40;99.90
2100;DHT22;1055;48.854;9.302;2024-01-10T07:08:43;-1.10;99.90
2100;DHT22;1055;48.854;9.302;2024-01-10T07:11:10;-1.50;99.90
2100;DHT22;1055;48.854;9.302;2024-01-10T07:13:37;-1.50;99.90
2100;DHT22;1055;48.854;9.302;2024-01-10T07:16:02;-1.20;99.90
2100;DHT22;1055;48.854;9.302;2024-01-10T07:18:28;-1.20;99.90
2100;DHT22;1055;48.854;9.302;2024-01-10T07:20:54;-1.10;99.90
2100;DHT22;1055;48.854;9.302;2024-01-10T07:23:20;-1.00;99.90
2100;DHT22;1055;48.854;9.302;2024-01-10T07:25:45;-0.90;99.90
2100;DHT22;1055;48.854;9.302;2024-01-10T07:28:11;-0.80;99.90
2100;DHT22;1055;48.854;9.302;2024-01-10T07:30:36;-0.70;99.90
2100;DHT22;1055;48.854;9.302;2024-01-10T07:33:02;-0.70;99.90
2100;DHT22;1055;48.854;9.302;2024-01-10T07:35:28;-0.70;99.90
2100;DHT22;1055;48.854;9.302;2024-01-10T07:37:54;-1.10;99.90
2100;DHT22;1055;48.854;9.302;2024-01-10T07:40:20;-1.10;99.90
2100;DHT22;1055;48.854;9.302;2024-01-10T07:42:46;-1.00;99.90
2100;DHT22;1055;48.854;9.302;2024-01-10T07:45:11;-1.00;99.90
2100;DHT22;1055;48.854;9.302;2024-01-10T07:47:38;-1.90;99.90
2100;DHT22;1055;48.854;9.302;2024-01-10T07:50:07;-1.90;99.90
2100;DHT22;1055;48.854;9.302;2024-01-10T07:52:33;-1.40;99.90
2100;DHT22;1055;48.854;9.302;2024-01-10T07:54:59;-1.20;99.90
2100;DHT22;1055;48.854;9.302;2024-01-10T07:57:26;-1.10;99.90
2100;DHT22;1055;48.854;9.302;2024-01-10T07:59:52;-0.90;99.90
2100;DHT22;1055;48.854;9.302;2024-01-10T08:02:18;-1.00;99.90
2100;DHT22;1055;48.854;9.302;2024-01-10T08:04:44;-1.00;99.90
2100;DHT22;1055;48.854;9.302;2024-01-10T08:07:09;-0.80;99.90
2100;DHT22;1055;48.854;9.302;2024-01-10T08:09:35;-1.20;99.90
2100;DHT22;1055;48.854;9.302;2024-01-10T08:12:02;-1.60;99.90
2100;DHT22;1055;48.854;9.302;2024-01-10T08:14:28;-1.50;99.90
2100;DHT22;1055;48.854;9.302;2024-01-10T08:16:53;-1.20;99.90
2100;DHT22;1055;48.854;9.302;2024-01-10T08:19:20;-1.70;99.90
2100;DHT22;1055;48.854;9.302;2024-01-10T08:21:46;-1.80;99.90
2100;DHT22;1055;48.854;9.302;2024-01-10T08:24:12;-1.70;99.90
2100;DHT22;1055;48.854;9.302;2024-01-10T08:26:37;-1.70;99.90
2100;DHT22;1055;48.854;9.302;2024-01-10T08:29:03;-1.30;99.90
2100;DHT22;1055;48.854;9.302;2024-01-10T08:31:29;-1.00;99.90
2100;DHT22;1055;48.854;9.302;2024-01-10T08:33:55;-0.80;99.90
2100;DHT22;1055;48.854;9.302;2024-01-10T08:36:22;-0.80;99.90
2100;DHT22;1055;48.854;9.302;2024-01-10T08:38:50;-0.90;99.90
2100;DHT22;1055;48.854;9.302;2024-01-10T08:41:15;-0.80;99.90
2100;DHT22;1055;48.854;9.302;2024-01-10T08:43:41;-0.60;99.90
2100;DHT22;1055;48.854;9.302;2024-01-10T08:46:08;-0.70;99.90
2100;DHT22;1055;48.854;9.302;2024-01-10T08:48:34;-0.70;99.90
2100;DHT22;1055;48.854;9.302;2024-01-10T08:51:02;-0.60;99.90
2100;DHT22;1055;48.854;9.302;2024-01-10T08:53:27;-1.20;99.90
2100;DHT22;1055;48.854;9.302;2024-01-10T08:55:53;-0.90;99.90
2100;DHT22;1055;48.854;9.302;2024-01-10T08:58:19;-1.10;99.90
2100;DHT22;1055;48.854;9.302;2024-01-10T09:00:44;-1.00;99.90
2100;DHT22;1055;48.854;9.302;2024-01-10T09:03:10;-0.90;99.90
2100;DHT22;1055;48.854;9.302;2024-01-10T09:05:35;-1.00;99.90
2100;DHT22;1055;48.854;9.302;2024-01-10T09:08:02;-0.70;99.90
2100;DHT22;1055;48.854;9.302;2024-01-10T09:10:28;-0.80;99.90
2100;DHT22;1055;48.854;9.302;2024-01-10T09:12:54;-0.50;99.90
2100;DHT22;1055;48.854;9.302;2024-01-10T09:15:19;-0.30;99.90
2100;DHT22;1055;48.854;9.302;2024-01-10T09:17:45;0.30;99.90
2100;DHT22;1055;48.854;9.302;2024-01-10T09:20:12;0.10;99.90
2100;DHT22;1055;48.854;9.302;2024-01-10T09:22:38;-0.10;99.90
2100;DHT22;1055;48.854;9.302;2024-01-10T09:25:05;-0.40;99.90
2100;DHT22;1055;48.854;9.302;2024-01-10T09:27:32;-0.10;99.90
2100;DHT22;1055;48.854;9.302;2024-01-10T09:30:01;0.30;99.90
2100;DHT22;1055;48.854;9.302;2024-01-10T09:32:34;0.90;99.90
2100;DHT22;1055;48.854;9.302;2024-01-10T09:35:00;1.00;99.90
2100;DHT22;1055;48.854;9.302;2024-01-10T09:37:26;0.70;99.90
2100;DHT22;1055;48.854;9.302;2024-01-10T09:39:51;0.70;99.90
2100;DHT22;1055;48.854;9.302;2024-01-10T09:42:18;0.90;99.90
2100;DHT22;1055;48.854;9.302;2024-01-10T09:44:45;0.80;99.90
2100;DHT22;1055;48.854;9.302;2024-01-10T09:47:11;0.40;99.90
2100;DHT22;1055;48.854;9.302;2024-01-10T09:49:38;0.50;99.90
2100;DHT22;1055;48.854;9.302;2024-01-10T09:52:04;-0.30;99.90
2100;DHT22;1055;48.854;9.302;2024-01-10T09:54:38;-1.10;99.90
2100;DHT22;1055;48.854;9.302;2024-01-10T09:57:05;-0.30;99.90
2100;DHT22;1055;48.854;9.302;2024-01-10T09:59:31;-0.50;99.90
2100;DHT22;1055;48.854;9.302;2024-01-10T10:01:57;-0.10;99.90
2100;DHT22;1055;48.854;9.302;2024-01-10T10:04:27;-0.70;99.90
2100;DHT22;1055;48.854;9.302;2024-01-10T10:06:59;-0.10;99.90
2100;DHT22;1055;48.854;9.302;2024-01-10T10:09:26;-0.30;99.90
2100;DHT22;1055;48.854;9.302;2024-01-10T10:11:56;-0.10;99.90
2100;DHT22;1055;48.854;9.302;2024-01-10T10:14:25;-0.50;99.90
2100;DHT22;1055;48.854;9.302;2024-01-10T10:16:53;-0.70;99.90
2100;DHT22;1055;48.854;9.302;2024-01-10T10:19:25;-1.00;99.90
2100;DHT22;1055;48.854;9.302;2024-01-10T10:21:51;-1.10;99.90
2100;DHT22;1055;48.854;9.302;2024-01-10T10:24:16;-1.00;99.90
2100;DHT22;1055;48.854;9.302;2024-01-10T10:26:42;-1.30;99.90
2100;DHT22;1055;48.854;9.302;2024-01-10T10:29:09;-1.30;99.90
2100;DHT22;1055;48.854;9.302;2024-01-10T10:31:35;-1.00;99.90
2100;DHT22;1055;48.854;9.302;2024-01-10T10:34:01;-1.20;99.90
2100;DHT22;1055;48.854;9.302;2024-01-10T10:36:29;-1.10;99.90
2100;DHT22;1055;48.854;9.302;2024-01-10T10:38:55;-0.90;99.90
2100;DHT22;1055;48.854;9.302;2024-01-10T10:41:21;-0.60;99.90
2100;DHT22;1055;48.854;9.302;2024-01-10T10:43:47;-1.00;99.90
2100;DHT22;1055;48.854;9.302;2024-01-10T10:46:15;-1.50;99.90
2100;DHT22;1055;48.854;9.302;2024-01-10T10:48:42;-1.20;99.90
2100;DHT22;1055;48.854;9.302;2024-01-10T10:51:19;-1.10;99.90
2100;DHT22;1055;48.854;9.302;2024-01-10T10:53:50;-1.10;99.90
2100;DHT22;1055;48.854;9.302;2024-01-10T10:56:16;-0.50;99.90
2100;DHT22;1055;48.854;9.302;2024-01-10T10:58:43;-1.00;99.90
2100;DHT22;1055;48.854;9.302;2024-01-10T11:01:12;-1.00;99.90
2100;DHT22;1055;48.854;9.302;2024-01-10T11:03:39;-0.80;99.90
2100;DHT22;1055;48.854;9.302;2024-01-10T11:06:10;-0.60;99.90
2100;DHT22;1055;48.854;9.302;2024-01-10T11:08:37;-0.30;99.90
2100;DHT22;1055;48.854;9.302;2024-01-10T11:11:07;-0.60;99.90
2100;DHT22;1055;48.854;9.302;2024-01-10T11:13:54;-0.80;99.90
2100;DHT22;1055;48.854;9.302;2024-01-10T11:16:41;-0.50;99.90
2100;DHT22;1055;48.854;9.302;2024-01-10T11:25:09;0.00;99.90
2100;DHT22;1055;48.854;9.302;2024-01-10T11:27:36;-0.30;99.90
2100;DHT22;1055;48.854;9.302;2024-01-10T11:30:02;-0.20;99.90
2100;DHT22;1055;48.854;9.302;2024-01-10T11:32:30;0.00;99.90
2100;DHT22;1055;48.854;9.302;2024-01-10T11:34:58;0.20;99.90
2100;DHT22;1055;48.854;9.302;2024-01-10T11:37:42;0.50;99.90
2100;DHT22;1055;48.854;9.302;2024-01-10T11:40:09;0.50;99.90
2100;DHT22;1055;48.854;9.302;2024-01-10T11:42:42;-0.10;99.90
2100;DHT22;1055;48.854;9.302;2024-01-10T11:45:08;-0.20;99.90
2100;DHT22;1055;48.854;9.302;2024-01-10T11:47:34;0.20;99.90
2100;DHT22;1055;48.854;9.302;2024-01-10T11:50:02;0.50;99.90
2100;DHT22;1055;48.854;9.302;2024-01-10T11:52:33;0.60;99.90
2100;DHT22;1055;48.854;9.302;2024-01-10T11:54:59;0.50;99.90
2100;DHT22;1055;48.854;9.302;2024-01-10T11:57:27;0.80;99.90
2100;DHT22;1055;48.854;9.302;2024-01-10T11:59:56;1.00;99.90
2100;DHT22;1055;48.854;9.302;2024-01-10T12:02:25;0.60;99.90
2100;DHT22;1055;48.854;9.302;2024-01-10T12:04:52;0.90;99.90
2100;DHT22;1055;48.854;9.302;2024-01-10T12:07:18;1.20;99.90
2100;DHT22;1055;48.854;9.302;2024-01-10T12:09:44;1.10;99.90
2100;DHT22;1055;48.854;9.302;2024-01-10T12:12:12;0.80;99.90
2100;DHT22;1055;48.854;9.302;2024-01-10T12:14:37;0.90;99.90
2100;DHT22;1055;48.854;9.302;2024-01-10T12:17:05;1.20;99.90
2100;DHT22;1055;48.854;9.302;2024-01-10T12:19:31;1.40;99.90
2100;DHT22;1055;48.854;9.302;2024-01-10T12:21:57;1.20;99.90
2100;DHT22;1055;48.854;9.302;2024-01-10T12:24:22;0.90;99.90
2100;DHT22;1055;48.854;9.302;2024-01-10T12:26:49;0.90;99.90
2100;DHT22;1055;48.854;9.302;2024-01-10T12:29:18;1.00;99.90
2100;DHT22;1055;48.854;9.302;2024-01-10T12:31:47;1.30;99.90
2100;DHT22;1055;48.854;9.302;2024-01-10T12:34:13;1.40;99.90
2100;DHT22;1055;48.854;9.302;2024-01-10T12:36:43;0.70;99.90
2100;DHT22;1055;48.854;9.302;2024-01-10T12:39:09;1.00;99.90
2100;DHT22;1055;48.854;9.302;2024-01-10T12:41:36;1.40;99.90
2100;DHT22;1055;48.854;9.302;2024-01-10T12:44:03;1.70;99.90
2100;DHT22;1055;48.854;9.302;2024-01-10T12:46:29;1.50;99.90
2100;DHT22;1055;48.854;9.302;2024-01-10T12:49:04;0.70;99.90
2100;DHT22;1055;48.854;9.302;2024-01-10T12:51:34;0.90;99.90
2100;DHT22;1055;48.854;9.302;2024-01-10T12:54:02;0.90;99.90
2100;DHT22;1055;48.854;9.302;2024-01-10T12:56:29;1.20;99.90
2100;DHT22;1055;48.854;9.302;2024-01-10T12:58:55;1.20;99.90
2100;DHT22;1055;48.854;9.302;2024-01-10T13:01:22;1.10;99.90
2100;DHT22;1055;48.854;9.302;2024-01-10T13:03:48;1.10;99.90
2100;DHT22;1055;48.854;9.302;2024-01-10T13:06:17;1.40;99.90
2100;DHT22;1055;48.854;9.302;2024-01-10T13:08:44;1.40;99.90
2100;DHT22;1055;48.854;9.302;2024-01-10T13:11:10;1.40;99.90
2100;DHT22;1055;48.854;9.302;2024-01-10T13:13:36;1.40;99.90
2100;DHT22;1055;48.854;9.302;2024-01-10T13:16:02;1.70;99.90
2100;DHT22;1055;48.854;9.302;2024-01-10T13:18:28;1.70;99.90
2100;DHT22;1055;48.854;9.302;2024-01-10T13:20:54;1.90;99.90
2100;DHT22;1055;48.854;9.302;2024-01-10T13:23:20;2.20;99.90
2100;DHT22;1055;48.854;9.302;2024-01-10T13:25:47;2.20;99.90
2100;DHT22;1055;48.854;9.302;2024-01-10T13:28:14;1.60;99.90
2100;DHT22;1055;48.854;9.302;2024-01-10T13:30:42;1.90;99.90
2100;DHT22;1055;48.854;9.302;2024-01-10T13:33:08;2.30;99.90
2100;DHT22;1055;48.854;9.302;2024-01-10T13:35:35;2.50;99.90
2100;DHT22;1055;48.854;9.302;2024-01-10T13:38:01;2.80;99.90
2100;DHT22;1055;48.854;9.302;2024-01-10T13:40:26;3.00;99.20
2100;DHT22;1055;48.854;9.302;2024-01-10T13:42:52;2.30;98.80
2100;DHT22;1055;48.854;9.302;2024-01-10T13:45:18;2.40;98.80
2100;DHT22;1055;48.854;9.302;2024-01-10T13:47:44;2.70;99.50
2100;DHT22;1055;48.854;9.302;2024-01-10T13:50:10;2.80;98.80
2100;DHT22;1055;48.854;9.302;2024-01-10T13:52:36;2.90;98.20
2100;DHT22;1055;48.854;9.302;2024-01-10T13:55:02;2.90;98.20
2100;DHT22;1055;48.854;9.302;2024-01-10T13:57:31;2.80;97.90
2100;DHT22;1055;48.854;9.302;2024-01-10T14:00:01;2.70;98.30
2100;DHT22;1055;48.854;9.302;2024-01-10T14:02:27;2.90;98.70
2100;DHT22;1055;48.854;9.302;2024-01-10T14:04:53;2.60;98.60
2100;DHT22;1055;48.854;9.302;2024-01-10T14:07:24;2.70;98.60
2100;DHT22;1055;48.854;9.302;2024-01-10T14:09:50;2.90;98.30
2100;DHT22;1055;48.854;9.302;2024-01-10T14:12:16;2.90;97.60
2100;DHT22;1055;48.854;9.302;2024-01-10T14:14:42;2.40;98.30
2100;DHT22;1055;48.854;9.302;2024-01-10T14:17:07;2.80;99.00
2100;DHT22;1055;48.854;9.302;2024-01-10T14:19:33;2.80;98.40
2100;DHT22;1055;48.854;9.302;2024-01-10T14:21:58;2.80;98.40
2100;DHT22;1055;48.854;9.302;2024-01-10T14:24:24;3.00;98.90
2100;DHT22;1055;48.854;9.302;2024-01-10T14:26:50;3.30;98.30
2100;DHT22;1055;48.854;9.302;2024-01-10T14:29:16;3.20;98.00
2100;DHT22;1055;48.854;9.302;2024-01-10T14:31:41;3.50;97.50
2100;DHT22;1055;48.854;9.302;2024-01-10T14:34:07;3.60;96.90
2100;DHT22;1055;48.854;9.302;2024-01-10T14:36:32;3.70;96.30
2100;DHT22;1055;48.854;9.302;2024-01-10T14:38:59;3.70;95.80
2100;DHT22;1055;48.854;9.302;2024-01-10T14:41:24;3.80;96.00
2100;DHT22;1055;48.854;9.302;2024-01-10T14:43:50;3.50;95.60
2100;DHT22;1055;48.854;9.302;2024-01-10T14:46:15;3.70;95.70
2100;DHT22;1055;48.854;9.302;2024-01-10T14:48:41;3.80;95.60
2100;DHT22;1055;48.854;9.302;2024-01-10T14:51:07;3.90;95.50
2100;DHT22;1055;48.854;9.302;2024-01-10T14:53:33;3.30;95.00
2100;DHT22;1055;48.854;9.302;2024-01-10T14:56:00;3.70;95.80
2100;DHT22;1055;48.854;9.302;2024-01-10T14:58:26;3.80;95.30
2100;DHT22;1055;48.854;9.302;2024-01-10T15:00:51;3.90;95.10
2100;DHT22;1055;48.854;9.302;2024-01-10T15:03:17;3.70;95.20
2100;DHT22;1055;48.854;9.302;2024-01-10T15:05:43;3.80;95.10
2100;DHT22;1055;48.854;9.302;2024-01-10T15:08:11;3.50;94.60
2100;DHT22;1055;48.854;9.302;2024-01-10T15:10:38;3.60;94.90
2100;DHT22;1055;48.854;9.302;2024-01-10T15:13:10;2.80;94.90
2100;DHT22;1055;48.854;9.302;2024-01-10T15:15:39;2.50;97.50
2100;DHT22;1055;48.854;9.302;2024-01-10T15:18:06;2.90;97.40
2100;DHT22;1055;48.854;9.302;2024-01-10T15:20:32;2.70;96.40
2100;DHT22;1055;48.854;9.302;2024-01-10T15:25:28;3.10;96.70
2100;DHT22;1055;48.854;9.302;2024-01-10T15:27:54;3.10;96.70
2100;DHT22;1055;48.854;9.302;2024-01-10T15:30:19;3.00;96.70
2100;DHT22;1055;48.854;9.302;2024-01-10T15:32:48;2.80;96.90
2100;DHT22;1055;48.854;9.302;2024-01-10T15:35:14;2.60;97.00
2100;DHT22;1055;48.854;9.302;2024-01-10T15:37:40;2.60;97.80
2100;DHT22;1055;48.854;9.302;2024-01-10T15:40:10;2.20;97.90
2100;DHT22;1055;48.854;9.302;2024-01-10T15:42:37;2.40;98.30
2100;DHT22;1055;48.854;9.302;2024-01-10T15:45:03;2.50;99.30
2100;DHT22;1055;48.854;9.302;2024-01-10T15:47:31;2.00;98.10
2100;DHT22;1055;48.854;9.302;2024-01-10T15:49:57;2.00;99.40
2100;DHT22;1055;48.854;9.302;2024-01-10T15:52:22;2.20;99.90
2100;DHT22;1055;48.854;9.302;2024-01-10T15:54:52;1.70;99.90
2100;DHT22;1055;48.854;9.302;2024-01-10T15:57:23;1.90;99.90
2100;DHT22;1055;48.854;9.302;2024-01-10T15:59:49;2.10;99.90
2100;DHT22;1055;48.854;9.302;2024-01-10T16:02:15;2.00;99.90
2100;DHT22;1055;48.854;9.302;2024-01-10T16:04:41;1.90;99.90
2100;DHT22;1055;48.854;9.302;2024-01-10T16:07:06;2.10;99.90
2100;DHT22;1055;48.854;9.302;2024-01-10T16:09:32;2.00;99.90